createdAt,value
2023-07-12T00:01:29.665Z,99791.81
2023-07-12T00:04:01.514Z,99783.53
2023-07-12T00:06:30.686Z,99778.62
2023-07-12T00:08:59.420Z,99769.55
2023-07-12T00:11:28.273Z,99770.66
2023-07-12T00:13:57.263Z,99769.51
2023-07-12T00:16:30.768Z,99767.22
2023-07-12T00:18:59.660Z,99763.67
2023-07-12T00:21:30.494Z,99762.36
2023-07-12T00:24:00.115Z,99765.85
2023-07-12T00:26:30.354Z,99768.41
2023-07-12T00:29:02.096Z,99771.89
2023-07-12T00:31:31.146Z,99760.01
2023-07-12T00:34:01.387Z,99755.38
2023-07-12T00:36:31.370Z,99755.94
2023-07-12T00:39:01.731Z,99761.77
2023-07-12T00:41:48.698Z,99748.88
2023-07-12T00:44:18.970Z,99751.16
2023-07-12T00:46:52.358Z,99756.27
2023-07-12T00:49:21.074Z,99754.27
2023-07-12T00:52:03.598Z,99745.06
2023-07-12T00:54:49.066Z,99745.67
2023-07-12T00:57:17.983Z,99746.00
2023-07-12T00:59:46.799Z,99740.92
2023-07-12T01:02:16.197Z,99743.66
2023-07-12T01:04:46.485Z,99734.78
2023-07-12T01:07:17.699Z,99731.31
2023-07-12T01:09:46.449Z,99726.41
2023-07-12T01:12:15.185Z,99728.98
2023-07-12T01:14:45.519Z,99717.27
2023-07-12T01:17:14.966Z,99715.38
2023-07-12T01:19:43.794Z,99711.79
2023-07-12T01:22:12.626Z,99701.45
2023-07-12T01:24:41.383Z,99691.27
2023-07-12T01:27:15.072Z,99693.12
2023-07-12T01:29:43.832Z,99692.64
2023-07-12T01:32:12.827Z,99683.08
2023-07-12T01:34:42.078Z,99677.99
2023-07-12T01:37:12.889Z,99666.52
2023-07-12T01:39:41.812Z,99663.00
2023-07-12T01:42:12.385Z,99663.13
2023-07-12T01:44:42.920Z,99659.16
2023-07-12T01:47:11.694Z,99655.27
2023-07-12T01:49:40.456Z,99648.68
2023-07-12T01:52:09.501Z,99646.39
2023-07-12T01:54:38.231Z,99653.45
2023-07-12T01:57:07.661Z,99651.90
2023-07-12T01:59:37.158Z,99648.27
2023-07-12T02:02:06.800Z,99645.26
2023-07-12T02:04:35.627Z,99634.15
2023-07-12T02:07:05.598Z,99622.09
2023-07-12T02:09:35.894Z,99619.74
2023-07-12T02:12:05.489Z,99602.50
2023-07-12T02:14:38.157Z,99605.50
2023-07-12T02:17:06.979Z,99604.59
2023-07-12T02:19:35.661Z,99599.63
2023-07-12T02:22:08.606Z,99595.81
2023-07-12T02:24:37.330Z,99596.63
2023-07-12T02:27:06.145Z,99596.11
2023-07-12T02:29:34.856Z,99594.45
2023-07-12T02:32:04.186Z,99588.73
2023-07-12T02:34:34.837Z,99595.61
2023-07-12T02:39:47.666Z,99584.84
2023-07-12T02:42:16.407Z,99590.67
2023-07-12T02:44:45.142Z,99598.86
2023-07-12T02:47:14.144Z,99596.00
2023-07-12T02:49:42.970Z,99593.57
2023-07-12T02:52:11.668Z,99589.18
2023-07-12T02:54:40.471Z,99578.24
2023-07-12T02:57:10.763Z,99584.77
2023-07-12T02:59:39.488Z,99582.52
2023-07-12T03:02:09.117Z,99576.94
2023-07-12T03:04:38.407Z,99568.52
2023-07-12T03:07:07.242Z,99560.79
2023-07-12T03:09:35.982Z,99560.44
2023-07-12T03:12:09.089Z,99557.16
2023-07-12T03:14:39.016Z,99547.70
2023-07-12T03:17:07.882Z,99541.34
2023-07-12T03:19:36.859Z,99541.06
2023-07-12T03:22:05.600Z,99534.13
2023-07-12T03:24:35.270Z,99517.25
2023-07-12T03:27:04.057Z,99523.41
2023-07-12T03:29:32.787Z,99518.66
2023-07-12T03:32:01.525Z,99518.96
2023-07-12T03:34:31.889Z,99522.45
2023-07-12T03:37:01.423Z,99521.78
2023-07-12T03:39:30.113Z,99515.91
2023-07-12T03:41:59.876Z,99505.38
2023-07-12T03:44:29.516Z,99504.41
2023-07-12T03:46:58.633Z,99494.19
2023-07-12T03:49:27.430Z,99493.27
2023-07-12T03:51:56.168Z,99487.56
2023-07-12T03:54:24.899Z,99490.67
2023-07-12T03:56:54.191Z,99490.77
2023-07-12T03:59:22.989Z,99492.00
2023-07-12T04:01:51.721Z,99495.02
2023-07-12T04:04:20.455Z,99499.74
2023-07-12T04:06:49.174Z,99501.25
2023-07-12T04:09:17.978Z,99503.75
2023-07-12T04:11:46.694Z,99502.09
2023-07-12T04:14:15.504Z,99506.30
2023-07-12T04:16:45.588Z,99507.97
2023-07-12T04:19:14.431Z,99517.77
2023-07-12T04:21:43.212Z,99506.30
2023-07-12T04:24:11.969Z,99501.20
2023-07-12T04:26:40.697Z,99499.41
2023-07-12T04:29:09.427Z,99517.11
2023-07-12T04:31:38.369Z,99513.11
2023-07-12T04:34:07.185Z,99500.01
2023-07-12T04:36:36.021Z,99506.64
2023-07-12T04:39:05.365Z,99502.92
2023-07-12T04:41:34.116Z,99505.31
2023-07-12T04:44:03.087Z,99518.81
2023-07-12T04:46:31.944Z,99518.44
2023-07-12T04:49:01.657Z,99519.28
2023-07-12T04:51:30.399Z,99530.39
2023-07-12T04:53:59.712Z,99535.83
2023-07-12T04:56:28.574Z,99530.62
2023-07-12T04:58:57.311Z,99543.77
2023-07-12T05:01:26.174Z,99539.52
2023-07-12T05:03:55.034Z,99551.09
2023-07-12T05:06:24.348Z,99556.66
2023-07-12T05:08:53.548Z,99546.10
2023-07-12T05:11:23.289Z,99543.41
2023-07-12T05:13:52.042Z,99533.05
2023-07-12T05:16:20.865Z,99528.85
2023-07-12T05:18:53.670Z,99517.11
2023-07-12T05:21:24.202Z,99520.14
2023-07-12T05:23:53.211Z,99518.39
2023-07-12T05:26:21.950Z,99520.02
2023-07-12T05:28:50.779Z,99520.97
2023-07-12T05:31:19.626Z,99502.72
2023-07-12T05:33:48.704Z,99498.20
2023-07-12T05:36:17.462Z,99493.89
2023-07-12T05:38:46.792Z,99494.34
2023-07-12T05:41:15.563Z,99493.16
2023-07-12T05:43:44.362Z,99486.55
2023-07-12T05:46:13.132Z,99494.61
2023-07-12T05:48:41.887Z,99489.11
2023-07-12T05:51:10.948Z,99481.87
2023-07-12T05:53:40.146Z,99479.91
2023-07-12T05:56:08.898Z,99482.09
2023-07-12T05:58:37.708Z,99484.19
2023-07-12T06:01:07.819Z,99473.89
2023-07-12T06:03:37.165Z,99465.12
2023-07-12T06:06:09.698Z,99470.52
2023-07-12T06:08:38.723Z,99455.80
2023-07-12T06:11:08.253Z,99450.08
2023-07-12T06:13:37.477Z,99454.01
2023-07-12T06:16:06.731Z,99450.19
2023-07-12T06:18:35.620Z,99440.78
2023-07-12T06:21:07.035Z,99430.81
2023-07-12T06:23:36.152Z,99433.22
2023-07-12T06:26:07.013Z,99426.53
2023-07-12T06:28:35.756Z,99420.80
2023-07-12T06:31:04.702Z,99415.48
2023-07-12T06:33:33.423Z,99419.16
2023-07-12T06:36:02.170Z,99417.41
2023-07-12T06:38:31.035Z,99408.95
2023-07-12T06:40:59.984Z,99412.87
2023-07-12T06:43:29.685Z,99420.54
2023-07-12T06:45:58.789Z,99426.25
2023-07-12T06:48:27.541Z,99426.41
2023-07-12T06:50:56.550Z,99420.72
2023-07-12T06:53:27.091Z,99417.30
2023-07-12T06:55:56.222Z,99416.45
2023-07-12T06:58:24.968Z,99420.88
2023-07-12T07:00:53.781Z,99427.16
2023-07-12T07:03:22.592Z,99436.47
2023-07-12T07:05:51.347Z,99434.75
2023-07-12T07:08:21.261Z,99431.00
2023-07-12T07:10:51.395Z,99425.28
2023-07-12T07:13:22.209Z,99426.63
2023-07-12T07:15:51.008Z,99429.91
2023-07-12T07:18:20.552Z,99429.91
2023-07-12T07:20:49.396Z,99430.33
2023-07-12T07:23:18.183Z,99439.42
2023-07-12T07:25:47.268Z,99448.83
2023-07-12T07:28:16.071Z,99458.86
2023-07-12T07:30:44.884Z,99463.96
2023-07-12T07:33:13.683Z,99460.95
2023-07-12T07:35:42.403Z,99460.95
2023-07-12T07:38:11.176Z,99457.55
2023-07-12T07:40:43.029Z,99462.22
2023-07-12T07:43:12.847Z,99466.70
2023-07-12T07:45:42.380Z,99472.50
2023-07-12T07:48:11.821Z,99473.83
2023-07-12T07:50:40.937Z,99479.97
2023-07-12T07:53:09.797Z,99480.32
2023-07-12T07:55:40.037Z,99497.73
2023-07-12T07:58:10.416Z,99506.20
2023-07-12T08:00:39.396Z,99508.83
2023-07-12T08:03:08.889Z,99522.47
2023-07-12T08:05:37.688Z,99527.76
2023-07-12T08:08:06.507Z,99527.02
2023-07-12T08:10:36.477Z,99524.49
2023-07-12T08:13:05.381Z,99527.47
2023-07-12T08:15:34.952Z,99537.38
2023-07-12T08:18:05.120Z,99552.67
2023-07-12T08:20:35.911Z,99553.09
2023-07-12T08:23:06.028Z,99554.55
2023-07-12T08:25:34.746Z,99556.84
2023-07-12T08:28:03.563Z,99561.58
2023-07-12T08:30:32.384Z,99548.22
2023-07-12T08:33:01.339Z,99547.05
2023-07-12T08:38:09.209Z,99546.96
2023-07-12T08:40:42.933Z,99548.79
2023-07-12T08:43:13.179Z,99550.36
2023-07-12T08:45:43.101Z,99553.16
2023-07-12T08:48:13.340Z,99543.87
2023-07-12T08:50:45.327Z,99552.95
2023-07-12T08:53:30.637Z,99552.37
2023-07-12T08:56:01.461Z,99553.13
2023-07-12T08:58:35.044Z,99558.13
2023-07-12T09:01:05.403Z,99559.01
2023-07-12T09:03:34.155Z,99549.30
2023-07-12T09:06:03.658Z,99540.31
2023-07-12T09:08:34.195Z,99535.71
2023-07-12T09:11:02.994Z,99541.27
2023-07-12T09:13:39.190Z,99531.06
2023-07-12T09:16:21.294Z,99534.36
2023-07-12T09:18:51.599Z,99536.14
2023-07-12T09:21:27.442Z,99537.78
2023-07-12T09:23:57.680Z,99526.88
2023-07-12T09:26:27.945Z,99526.22
2023-07-12T09:28:58.370Z,99540.12
2023-07-12T09:31:28.660Z,99557.72
2023-07-12T09:34:01.418Z,99566.47
2023-07-12T09:36:30.162Z,99576.48
2023-07-12T09:39:02.561Z,99565.11
2023-07-12T09:41:33.575Z,99563.97
2023-07-12T09:44:02.723Z,99558.34
2023-07-12T09:46:32.964Z,99564.92
2023-07-12T09:49:18.240Z,99575.94
2023-07-12T09:52:04.792Z,99574.48
2023-07-12T09:54:43.918Z,99563.05
2023-07-12T09:57:35.154Z,99571.11
2023-07-12T10:03:25.979Z,99569.38
2023-07-12T10:05:56.287Z,99565.19
2023-07-12T10:08:27.456Z,99574.30
2023-07-12T10:11:07.857Z,99572.39
2023-07-12T10:13:38.341Z,99574.11
2023-07-12T10:16:09.633Z,99567.70
2023-07-12T10:18:40.308Z,99563.88
2023-07-12T10:21:11.803Z,99556.73
2023-07-12T10:23:42.210Z,99567.82
2023-07-12T10:26:12.831Z,99554.74
2023-07-12T10:28:59.685Z,99550.97
2023-07-12T10:31:46.357Z,99559.81
2023-07-12T10:34:25.347Z,99555.27
2023-07-12T10:36:57.863Z,99551.77
2023-07-12T10:39:28.198Z,99555.22
2023-07-12T10:42:01.275Z,99544.37
2023-07-12T10:44:31.855Z,99540.24
2023-07-12T10:47:03.173Z,99543.25
2023-07-12T10:49:39.512Z,99543.98
2023-07-12T10:52:16.515Z,99539.72
2023-07-12T10:55:03.501Z,99532.12
2023-07-12T10:57:40.108Z,99520.86
2023-07-12T11:00:16.480Z,99513.69
2023-07-12T11:02:47.098Z,99516.80
2023-07-12T11:05:34.805Z,99510.54
2023-07-12T11:08:04.386Z,99500.03
2023-07-12T11:10:35.520Z,99510.84
2023-07-12T11:13:15.116Z,99506.66
2023-07-12T11:15:55.222Z,99506.33
2023-07-12T11:18:26.066Z,99514.87
2023-07-12T11:21:02.403Z,99505.73
2023-07-12T11:23:33.600Z,99498.83
2023-07-12T11:26:08.838Z,99501.30
2023-07-12T11:28:42.409Z,99499.77
2023-07-12T11:31:28.288Z,99490.13
2023-07-12T11:34:13.916Z,99482.77
2023-07-12T11:36:47.839Z,99491.28
2023-07-12T11:39:18.215Z,99481.41
2023-07-12T11:41:54.156Z,99491.14
2023-07-12T11:44:23.062Z,99489.34
2023-07-12T11:46:54.548Z,99489.64
2023-07-12T11:49:25.595Z,99485.38
2023-07-12T11:51:56.083Z,99481.72
2023-07-12T11:54:27.723Z,99478.02
2023-07-12T11:56:59.780Z,99481.34
2023-07-12T11:59:30.892Z,99474.88
2023-07-12T12:02:00.397Z,99479.70
2023-07-12T12:04:32.083Z,99480.59
2023-07-12T12:07:14.780Z,99469.75
2023-07-12T12:09:44.198Z,99480.61
2023-07-12T12:12:17.457Z,99471.23
2023-07-12T12:14:47.764Z,99474.52
2023-07-12T12:17:20.244Z,99469.55
2023-07-12T12:19:50.626Z,99473.89
2023-07-12T12:22:21.495Z,99477.71
2023-07-12T12:24:52.188Z,99485.69
2023-07-12T12:27:22.734Z,99492.23
2023-07-12T12:29:52.504Z,99498.39
2023-07-12T12:32:23.026Z,99490.09
2023-07-12T12:34:53.458Z,99487.58
2023-07-12T12:37:28.504Z,99481.66
2023-07-12T12:39:59.099Z,99478.44
2023-07-12T12:42:28.915Z,99471.20
2023-07-12T12:44:58.012Z,99471.06
2023-07-12T12:47:29.925Z,99465.65
2023-07-12T12:53:28.441Z,99459.66
2023-07-12T12:55:09.191Z,99458.13
2023-07-12T13:11:12.374Z,99472.45
2023-07-12T13:12:47.424Z,99468.31
2023-07-12T13:15:38.576Z,99462.55
2023-07-12T13:18:19.504Z,99443.05
2023-07-12T13:20:29.379Z,99462.25
2023-07-12T13:22:59.149Z,99458.43
2023-07-12T13:25:27.873Z,99453.48
2023-07-12T13:27:57.348Z,99452.39
2023-07-12T13:30:26.922Z,99453.50
2023-07-12T13:32:55.755Z,99452.09
2023-07-12T13:39:40.775Z,99445.32
2023-07-12T13:40:36.085Z,99435.20
2023-07-12T13:42:58.436Z,99440.58
2023-07-12T13:45:28.082Z,99439.00
2023-07-12T13:47:57.632Z,99440.67
2023-07-12T13:50:26.771Z,99442.83
2023-07-12T13:52:55.678Z,99441.73
2023-07-12T13:55:25.778Z,99436.23
2023-07-12T13:57:54.765Z,99430.31
2023-07-12T14:00:24.864Z,99445.23
2023-07-12T14:03:06.369Z,99403.12
2023-07-12T14:08:35.910Z,99444.36
2023-07-12T14:10:26.924Z,99438.88
2023-07-12T14:12:55.828Z,99443.52
2023-07-12T14:15:26.351Z,99450.44
2023-07-12T14:17:56.538Z,99446.66
2023-07-12T14:20:27.094Z,99443.22
2023-07-12T14:22:55.939Z,99438.53
2023-07-12T14:25:24.891Z,99444.19
2023-07-12T14:27:53.711Z,99451.25
2023-07-12T14:30:47.697Z,99444.50
2023-07-12T14:32:53.023Z,99460.73
2023-07-12T14:35:22.628Z,99461.44
2023-07-12T14:37:51.480Z,99456.52
2023-07-12T14:40:21.775Z,99454.98
2023-07-12T14:42:50.494Z,99455.64
2023-07-12T14:45:23.101Z,99464.77
2023-07-12T14:47:51.828Z,99451.01
2023-07-12T14:50:22.249Z,99455.55
2023-07-12T14:52:52.239Z,99457.77
2023-07-12T14:55:21.258Z,99460.89
2023-07-12T15:00:20.951Z,99464.03
2023-07-12T15:02:51.791Z,99448.31
2023-07-12T15:05:20.925Z,99436.34
2023-07-12T15:07:49.694Z,99412.58
2023-07-12T15:10:18.899Z,99414.11
2023-07-12T15:12:51.964Z,99432.40
2023-07-12T15:15:22.367Z,99465.25
2023-07-12T15:17:52.743Z,99484.27
2023-07-12T15:20:25.459Z,99470.23
2023-07-12T15:22:54.657Z,99458.25
2023-07-12T15:25:27.408Z,99447.15
2023-07-12T15:27:57.379Z,99438.38
2023-07-12T15:30:27.514Z,99433.94
2023-07-12T15:32:59.020Z,99430.50
2023-07-12T15:35:37.954Z,99428.86
2023-07-12T15:38:07.712Z,99434.33
2023-07-12T15:40:45.308Z,99434.53
2023-07-12T15:43:16.202Z,99446.80
2023-07-12T15:45:45.108Z,99449.43
2023-07-12T15:48:14.761Z,99448.09
2023-07-12T15:50:44.450Z,99449.44
2023-07-12T15:53:14.484Z,99444.98
2023-07-12T15:55:44.078Z,99436.31
2023-07-12T15:58:20.129Z,99443.19
2023-07-12T16:00:50.584Z,99452.92
2023-07-12T16:03:20.593Z,99450.87
2023-07-12T16:05:50.062Z,99452.28
2023-07-12T16:08:21.503Z,99449.93
2023-07-12T16:10:51.233Z,99453.71
2023-07-12T16:13:21.731Z,99457.92
2023-07-12T16:15:51.775Z,99469.25
2023-07-12T16:18:21.939Z,99471.55
2023-07-12T16:20:52.288Z,99473.88
2023-07-12T16:23:22.583Z,99479.41
2023-07-12T16:25:51.697Z,99474.23
2023-07-12T16:28:20.468Z,99477.09
2023-07-12T16:30:49.241Z,99479.97
2023-07-12T16:33:21.950Z,99483.03
2023-07-12T16:35:51.541Z,99491.55
2023-07-12T16:38:21.865Z,99486.06
2023-07-12T16:40:54.911Z,99483.73
2023-07-12T16:43:23.646Z,99488.35
2023-07-12T16:45:52.440Z,99490.27
2023-07-12T16:48:21.244Z,99489.68
2023-07-12T16:50:50.658Z,99494.22
2023-07-12T16:53:20.491Z,99491.91
2023-07-12T16:55:49.764Z,99500.75
2023-07-12T16:58:20.473Z,99497.50
2023-07-12T17:00:50.838Z,99498.52
2023-07-12T17:03:20.059Z,99501.28
2023-07-12T17:05:49.124Z,99497.89
2023-07-12T17:08:19.256Z,99498.17
2023-07-12T17:10:48.375Z,99498.67
2023-07-12T17:13:17.995Z,99497.42
2023-07-12T17:15:47.274Z,99505.61
2023-07-12T17:18:17.182Z,99511.58
2023-07-12T17:20:46.610Z,99509.92
2023-07-12T17:23:16.863Z,99505.64
2023-07-12T17:25:45.983Z,99512.59
2023-07-12T17:28:16.225Z,99519.04
2023-07-12T17:30:48.426Z,99517.23
2023-07-12T17:33:22.672Z,99519.63
2023-07-12T17:35:52.155Z,99527.63
2023-07-12T17:38:22.018Z,99532.23
2023-07-12T17:40:52.947Z,99534.52
2023-07-12T17:43:26.900Z,99542.24
2023-07-12T17:45:56.412Z,99536.23
2023-07-12T17:48:25.331Z,99536.89
2023-07-12T17:50:55.673Z,99548.98
2023-07-12T17:53:24.417Z,99547.59
2023-07-12T17:55:54.721Z,99551.30
2023-07-12T17:58:24.884Z,99547.77
2023-07-12T18:00:54.798Z,99547.98
2023-07-12T18:03:24.835Z,99545.70
2023-07-12T18:05:53.905Z,99554.06
2023-07-12T18:08:22.810Z,99555.02
2023-07-12T18:10:53.695Z,99550.89
2023-07-12T18:13:23.895Z,99541.06
2023-07-12T18:15:53.169Z,99535.94
2023-07-12T18:18:22.532Z,99543.03
2023-07-12T18:20:52.015Z,99545.02
2023-07-12T18:23:22.265Z,99539.00
2023-07-12T18:25:51.487Z,99539.14
2023-07-12T18:28:20.873Z,99539.77
2023-07-12T18:30:50.972Z,99541.66
2023-07-12T18:33:24.276Z,99544.88
2023-07-12T18:35:53.884Z,99552.08
2023-07-12T18:38:23.301Z,99551.58
2023-07-12T18:40:52.074Z,99552.76
2023-07-12T18:43:22.320Z,99548.17
2023-07-12T18:45:51.167Z,99548.69
2023-07-12T18:48:20.144Z,99544.40
2023-07-12T18:50:49.242Z,99544.72
2023-07-12T18:53:19.333Z,99551.89
2023-07-12T18:55:48.905Z,99553.73
2023-07-12T18:58:18.284Z,99560.13
2023-07-12T19:00:48.161Z,99558.77
2023-07-12T19:03:33.608Z,99570.11
2023-07-12T19:06:03.525Z,99572.53
2023-07-12T19:11:00.895Z,99565.50
2023-07-12T19:13:29.636Z,99574.15
2023-07-12T19:16:00.613Z,99576.78
2023-07-12T19:18:28.847Z,99581.92
2023-07-12T19:20:57.642Z,99578.72
2023-07-12T19:23:26.379Z,99580.70
2023-07-12T19:25:55.141Z,99584.66
2023-07-12T19:28:23.892Z,99589.33
2023-07-12T19:30:53.235Z,99603.47
2023-07-12T19:33:21.987Z,99604.77
2023-07-12T19:35:52.510Z,99603.33
2023-07-12T19:38:23.530Z,99604.16
2023-07-12T19:40:52.353Z,99603.13
2023-07-12T19:43:21.103Z,99607.69
2023-07-12T19:45:49.847Z,99608.03
2023-07-12T19:48:18.669Z,99610.01
2023-07-12T19:50:47.432Z,99613.84
2023-07-12T19:53:17.697Z,99614.98
2023-07-12T19:55:46.934Z,99614.67
2023-07-12T19:58:16.516Z,99625.98
2023-07-12T20:00:45.335Z,99625.08
2023-07-12T20:03:15.407Z,99626.45
2023-07-12T20:05:44.257Z,99629.52
2023-07-12T20:08:13.000Z,99625.98
2023-07-12T20:10:41.751Z,99634.98
2023-07-12T20:13:11.448Z,99635.30
2023-07-12T20:15:40.514Z,99638.00
2023-07-12T20:18:10.615Z,99639.84
2023-07-12T20:20:42.571Z,99642.10
2023-07-12T20:23:10.320Z,99653.19
2023-07-12T20:25:39.272Z,99647.29
2023-07-12T20:28:07.997Z,99649.55
2023-07-12T20:30:39.019Z,99654.15
2023-07-12T20:33:08.754Z,99651.45
2023-07-12T20:35:37.793Z,99649.28
2023-07-12T20:38:06.899Z,99646.55
2023-07-12T20:40:36.403Z,99647.02
2023-07-12T20:43:05.904Z,99643.02
2023-07-12T20:45:35.603Z,99638.83
2023-07-12T20:50:40.138Z,99650.39
2023-07-12T20:53:09.539Z,99644.50
2023-07-12T20:55:38.345Z,99649.25
2023-07-12T20:58:07.652Z,99643.74
2023-07-12T21:00:48.747Z,99648.48
2023-07-12T21:03:18.233Z,99648.95
2023-07-12T21:05:47.113Z,99646.38
2023-07-12T21:08:16.326Z,99646.03
2023-07-12T21:10:45.117Z,99648.56
2023-07-12T21:13:13.915Z,99645.41
2023-07-12T21:15:42.949Z,99638.82
2023-07-12T21:18:11.716Z,99633.70
2023-07-12T21:20:40.500Z,99641.84
2023-07-12T21:23:09.512Z,99643.61
2023-07-12T21:25:38.552Z,99650.01
2023-07-12T21:28:07.339Z,99650.27
2023-07-12T21:30:37.253Z,99655.39
2023-07-12T21:33:06.572Z,99658.53
2023-07-12T21:35:35.373Z,99657.56
2023-07-12T21:38:04.152Z,99664.09
2023-07-12T21:40:32.938Z,99658.66
2023-07-12T21:43:01.722Z,99663.91
2023-07-12T21:45:30.523Z,99662.88
2023-07-12T21:47:59.310Z,99664.42
2023-07-12T21:50:28.437Z,99662.44
2023-07-12T21:52:57.216Z,99665.77
2023-07-12T21:55:26.064Z,99669.98
2023-07-12T21:57:54.836Z,99666.98
2023-07-12T22:00:23.688Z,99674.86
2023-07-12T22:02:52.665Z,99672.30
2023-07-12T22:05:21.612Z,99676.14
2023-07-12T22:07:57.657Z,99681.06
2023-07-12T22:10:28.422Z,99684.66
2023-07-12T22:12:57.239Z,99687.66
2023-07-12T22:15:26.627Z,99694.90
2023-07-12T22:17:56.164Z,99696.44
2023-07-12T22:20:25.314Z,99700.47
2023-07-12T22:22:55.511Z,99705.84
2023-07-12T22:25:24.550Z,99696.14
2023-07-12T22:27:53.328Z,99697.97
2023-07-12T22:30:23.621Z,99695.50
2023-07-12T22:32:52.655Z,99696.52
2023-07-12T22:35:22.280Z,99703.79
2023-07-12T22:37:51.439Z,99698.91
2023-07-12T22:40:20.808Z,99701.41
2023-07-12T22:42:49.749Z,99696.92
2023-07-12T22:45:18.697Z,99691.09
2023-07-12T22:47:48.478Z,99691.05
2023-07-12T22:50:17.942Z,99691.75
2023-07-12T22:52:46.717Z,99693.14
2023-07-12T22:55:15.739Z,99689.14
2023-07-12T22:57:44.838Z,99693.25
2023-07-12T23:00:15.126Z,99700.72
2023-07-12T23:02:44.198Z,99693.77
2023-07-12T23:05:13.721Z,99702.20
2023-07-12T23:07:42.499Z,99700.21
2023-07-12T23:10:11.866Z,99696.69
2023-07-12T23:12:41.496Z,99702.16
2023-07-12T23:15:11.650Z,99703.97
2023-07-12T23:17:41.734Z,99701.05
2023-07-12T23:20:12.372Z,99704.30
2023-07-12T23:22:41.303Z,99703.78
2023-07-12T23:25:10.627Z,99709.67
2023-07-12T23:27:43.655Z,99713.19
2023-07-12T23:30:12.660Z,99703.09
2023-07-12T23:32:41.526Z,99700.53
2023-07-12T23:35:10.370Z,99693.03
2023-07-12T23:37:39.078Z,99692.72
2023-07-12T23:40:08.402Z,99693.88
2023-07-12T23:42:37.892Z,99691.19
2023-07-12T23:45:09.301Z,99691.28
2023-07-12T23:47:38.415Z,99690.27
2023-07-12T23:50:07.724Z,99695.72
2023-07-12T23:52:36.431Z,99702.94
2023-07-12T23:55:05.620Z,99716.05
2023-07-12T23:57:36.010Z,99719.84
